Time;durP1;ratioP1;P1;durP2;ratioP2;P2;SDS_P1;SDS_P2;PMS_P1;PMS_P2;Temp;Humidity;BMP_temperature;BMP_pressure;BME280_temperature;BME280_humidity;BME280_pressure;Samples;Min_cycle;Max_cycle;Signal;HPM_P1;HPM_P2
2023/11/19 00:00:16;;;;;;;7.53;5.05;;;14.30;91.80;;;;;;5049259;28;20033;-59
2023/11/19 00:02:42;;;;;;;11.07;4.38;;;14.30;91.80;;;;;;5041295;28;20037;-59
2023/11/19 00:05:09;;;;;;;5.78;3.30;;;14.40;91.70;;;;;;5043770;28;20044;-59
2023/11/19 00:07:36;;;;;;;8.60;4.13;;;14.40;91.70;;;;;;5057007;28;20033;-59
2023/11/19 00:10:06;;;;;;;8.95;3.72;;;14.40;91.80;;;;;;5052972;28;20087;-59
2023/11/19 00:12:32;;;;;;;5.97;3.13;;;14.40;91.80;;;;;;5044054;28;20455;-59
2023/11/19 00:14:58;;;;;;;5.63;3.45;;;14.40;91.60;;;;;;5051965;28;20029;-59
2023/11/19 00:17:24;;;;;;;6.35;4.18;;;14.50;91.70;;;;;;5047356;28;20099;-59
2023/11/19 00:19:51;;;;;;;6.18;3.72;;;14.50;91.60;;;;;;5053982;28;20559;-59
2023/11/19 00:22:17;;;;;;;7.63;4.00;;;14.50;91.60;;;;;;5052658;28;20037;-59
2023/11/19 00:24:43;;;;;;;4.28;2.45;;;14.50;91.60;;;;;;5054289;28;20033;-59
2023/11/19 00:27:08;;;;;;;6.57;3.58;;;14.50;91.70;;;;;;5046484;28;20021;-59
2023/11/19 00:29:34;;;;;;;8.38;3.67;;;14.50;91.80;;;;;;5049461;28;20457;-60
2023/11/19 00:32:00;;;;;;;6.03;3.55;;;14.50;91.80;;;;;;5055422;28;20028;-59
2023/11/19 00:34:25;;;;;;;7.43;3.70;;;14.50;91.80;;;;;;5057508;28;20028;-59
2023/11/19 00:36:51;;;;;;;5.38;3.17;;;14.60;91.80;;;;;;5050981;28;20029;-59
2023/11/19 00:39:17;;;;;;;11.73;3.58;;;14.60;91.70;;;;;;5058063;28;20028;-59
2023/11/19 00:41:43;;;;;;;6.10;4.05;;;14.60;91.70;;;;;;5052977;28;20117;-59
2023/11/19 00:44:09;;;;;;;5.10;3.72;;;14.60;91.80;;;;;;5049886;28;20108;-59
2023/11/19 00:46:35;;;;;;;4.40;3.00;;;14.60;91.80;;;;;;5053456;28;20078;-59
2023/11/19 00:49:01;;;;;;;6.60;3.33;;;14.60;91.80;;;;;;5054109;28;20037;-59
2023/11/19 00:51:26;;;;;;;5.90;4.00;;;14.70;91.70;;;;;;5054076;28;20091;-59
2023/11/19 00:53:53;;;;;;;4.22;2.50;;;14.70;91.70;;;;;;5033214;28;20052;-59
2023/11/19 00:56:19;;;;;;;5.75;2.15;;;14.70;91.60;;;;;;5049206;28;20024;-59
2023/11/19 00:58:45;;;;;;;5.43;3.00;;;14.70;91.50;;;;;;5048941;28;20055;-59
2023/11/19 01:01:14;;;;;;;4.63;2.60;;;14.70;91.50;;;;;;5043161;28;20471;-59
2023/11/19 01:03:39;;;;;;;5.15;2.80;;;14.70;91.50;;;;;;5051574;28;20050;-59
2023/11/19 01:06:05;;;;;;;5.35;2.92;;;14.70;91.50;;;;;;5048440;28;20033;-59
2023/11/19 01:08:31;;;;;;;6.47;2.38;;;14.80;91.50;;;;;;5048229;28;20044;-59
2023/11/19 01:10:57;;;;;;;6.43;2.70;;;14.80;91.50;;;;;;5050419;28;20365;-59
2023/11/19 01:13:24;;;;;;;5.63;3.35;;;14.80;91.40;;;;;;5053589;28;20037;-59
2023/11/19 01:15:50;;;;;;;6.18;3.42;;;14.80;91.40;;;;;;5050841;28;20505;-59
2023/11/19 01:18:16;;;;;;;5.40;2.70;;;14.80;91.50;;;;;;5056729;28;20048;-59
2023/11/19 01:20:42;;;;;;;9.52;3.03;;;14.80;91.50;;;;;;5046607;28;20029;-59
2023/11/19 01:23:07;;;;;;;5.13;2.63;;;14.80;91.40;;;;;;5047033;28;20090;-59
2023/11/19 01:25:34;;;;;;;2.58;2.10;;;14.80;91.40;;;;;;5052961;28;20586;-59
2023/11/19 01:27:59;;;;;;;2.80;1.80;;;14.80;91.40;;;;;;5045720;28;20079;-59
2023/11/19 01:30:26;;;;;;;6.45;3.30;;;14.80;91.40;;;;;;5047291;28;20052;-59
2023/11/19 01:32:51;;;;;;;9.07;2.45;;;14.80;91.40;;;;;;5056107;28;20368;-59
2023/11/19 01:35:17;;;;;;;5.18;3.03;;;14.80;91.40;;;;;;5054954;28;20017;-59
2023/11/19 01:37:43;;;;;;;7.30;2.13;;;14.80;91.30;;;;;;5051511;28;20099;-59
2023/11/19 01:40:11;;;;;;;6.78;1.98;;;14.80;91.30;;;;;;5050127;28;20242;-59
2023/11/19 01:42:40;;;;;;;7.78;2.25;;;14.80;91.30;;;;;;5051625;28;20032;-59
2023/11/19 01:45:09;;;;;;;16.00;2.75;;;14.90;91.20;;;;;;5050214;28;20068;-59
2023/11/19 01:47:36;;;;;;;4.40;2.78;;;14.90;91.20;;;;;;5053159;28;20055;-59
2023/11/19 01:50:06;;;;;;;2.60;1.52;;;14.90;91.20;;;;;;5052025;28;20054;-59
2023/11/19 01:52:35;;;;;;;8.98;2.30;;;14.90;91.10;;;;;;5048336;28;20040;-59
2023/11/19 01:55:02;;;;;;;6.32;1.77;;;14.90;91.10;;;;;;5050097;28;20023;-59
2023/11/19 01:57:28;;;;;;;9.10;2.50;;;14.90;91.20;;;;;;5050590;28;20056;-59
2023/11/19 01:59:54;;;;;;;8.13;2.10;;;14.90;91.10;;;;;;5046479;28;20063;-59
2023/11/19 02:02:20;;;;;;;6.85;2.38;;;14.90;91.10;;;;;;5041780;28;20048;-59
2023/11/19 02:04:50;;;;;;;8.77;2.53;;;14.90;91.00;;;;;;5052111;28;20036;-60
2023/11/19 02:07:19;;;;;;;4.10;2.15;;;14.90;91.00;;;;;;5046109;28;20044;-59
2023/11/19 02:09:45;;;;;;;5.07;2.70;;;14.90;91.00;;;;;;5043733;28;20041;-59
2023/11/19 02:12:13;;;;;;;5.82;2.22;;;14.80;91.00;;;;;;5046297;28;20022;-59
2023/11/19 02:14:39;;;;;;;5.47;3.35;;;14.80;91.00;;;;;;5050596;28;20104;-59
2023/11/19 02:17:05;;;;;;;3.75;2.50;;;14.90;90.90;;;;;;5051801;28;20548;-59
2023/11/19 02:19:31;;;;;;;11.05;2.65;;;14.90;90.90;;;;;;5049741;28;20044;-59
2023/11/19 02:21:56;;;;;;;7.57;2.05;;;14.90;90.90;;;;;;5048194;28;20036;-59
2023/11/19 02:24:25;;;;;;;2.05;1.60;;;14.80;90.80;;;;;;5049529;28;20151;-59
2023/11/19 02:27:24;;;;;;;9.43;2.45;;;14.90;90.90;;;;;;5054666;28;20029;-59
2023/11/19 02:29:50;;;;;;;7.22;2.22;;;14.80;90.70;;;;;;5050514;28;20033;-59
2023/11/19 02:32:15;;;;;;;3.38;2.08;;;14.80;90.80;;;;;;5053586;28;20017;-59
2023/11/19 02:34:41;;;;;;;3.05;1.83;;;14.80;90.80;;;;;;5055926;28;20435;-59
2023/11/19 02:37:08;;;;;;;10.77;2.38;;;14.80;90.70;;;;;;5047880;28;20121;-59
2023/11/19 02:39:33;;;;;;;7.85;2.03;;;14.80;90.70;;;;;;5052088;28;20057;-59
2023/11/19 02:41:59;;;;;;;5.88;2.22;;;14.80;90.60;;;;;;5052785;28;20072;-59
2023/11/19 02:44:28;;;;;;;10.15;2.42;;;14.90;90.60;;;;;;5052603;28;20036;-59
2023/11/19 02:46:54;;;;;;;4.38;2.10;;;14.80;90.50;;;;;;5050770;28;20040;-59
2023/11/19 02:49:20;;;;;;;12.05;2.15;;;14.80;90.50;;;;;;5054228;28;20028;-59
2023/11/19 02:51:46;;;;;;;8.68;2.17;;;14.80;90.50;;;;;;5051663;28;20033;-59
2023/11/19 02:54:12;;;;;;;6.28;2.33;;;14.80;90.50;;;;;;5056272;28;20199;-58
2023/11/19 02:56:42;;;;;;;9.18;2.63;;;14.80;90.40;;;;;;5054812;28;20037;-59
2023/11/19 02:59:18;;;;;;;5.43;2.55;;;14.80;90.40;;;;;;5059880;28;20077;-58
2023/11/19 03:01:48;;;;;;;17.35;2.63;;;14.70;90.30;;;;;;5057347;28;20032;-59
2023/11/19 03:04:17;;;;;;;10.05;3.03;;;14.70;90.30;;;;;;5055977;28;20032;-58
2023/11/19 03:06:42;;;;;;;8.68;2.13;;;14.70;90.30;;;;;;5061318;28;20033;-59
2023/11/19 03:09:10;;;;;;;8.90;2.40;;;14.60;90.20;;;;;;5060588;28;20051;-59
2023/11/19 03:11:36;;;;;;;10.90;2.25;;;14.60;90.10;;;;;;5058739;28;20080;-59
2023/11/19 03:14:03;;;;;;;14.13;2.95;;;14.60;90.10;;;;;;5058630;28;20056;-59
2023/11/19 03:16:28;;;;;;;7.25;3.00;;;14.70;90.10;;;;;;5050436;28;20079;-59
2023/11/19 03:18:55;;;;;;;7.13;2.78;;;14.60;90.00;;;;;;5060513;28;20376;-59
2023/11/19 03:21:28;;;;;;;9.32;2.35;;;14.60;90.00;;;;;;5046361;28;20017;-59
2023/11/19 03:23:54;;;;;;;10.48;2.50;;;14.60;90.00;;;;;;5057807;28;20041;-59
2023/11/19 03:26:19;;;;;;;10.68;3.55;;;14.50;89.90;;;;;;5059294;28;20037;-59
2023/11/19 03:28:45;;;;;;;7.80;3.05;;;14.50;89.50;;;;;;5061975;28;20415;-59
2023/11/19 03:31:11;;;;;;;7.20;2.45;;;14.50;89.50;;;;;;5061751;28;20025;-59
2023/11/19 03:33:37;;;;;;;12.02;2.35;;;14.50;89.70;;;;;;5056525;28;20124;-59
2023/11/19 03:36:03;;;;;;;9.93;2.38;;;14.50;89.60;;;;;;5055667;28;20055;-59
2023/11/19 03:38:29;;;;;;;2.28;1.63;;;14.50;89.50;;;;;;5060673;28;20453;-59
2023/11/19 03:40:54;;;;;;;12.32;3.30;;;14.40;89.60;;;;;;5055283;28;20078;-59
2023/11/19 03:43:20;;;;;;;11.65;3.55;;;14.50;89.40;;;;;;5053047;28;20025;-59
2023/11/19 03:45:46;;;;;;;32.58;4.55;;;14.40;89.10;;;;;;5053525;28;20037;-59
2023/11/19 03:48:12;;;;;;;15.68;3.13;;;14.40;89.20;;;;;;5052047;28;20499;-59
2023/11/19 03:50:38;;;;;;;8.48;3.03;;;14.40;89.20;;;;;;5053699;28;20158;-59
2023/11/19 03:53:04;;;;;;;9.32;3.47;;;14.30;89.30;;;;;;5057485;28;20029;-59
2023/11/19 03:55:31;;;;;;;12.23;2.28;;;14.30;89.00;;;;;;5057734;28;20450;-59
2023/11/19 03:57:56;;;;;;;6.95;2.80;;;14.20;89.00;;;;;;5046022;28;20049;-58
2023/11/19 04:00:22;;;;;;;11.43;3.40;;;14.20;89.00;;;;;;5053376;28;20041;-58
2023/11/19 04:02:48;;;;;;;14.70;4.30;;;14.10;88.90;;;;;;5060006;28;20028;-58
2023/11/19 04:05:14;;;;;;;11.20;2.40;;;14.10;89.10;;;;;;5052046;28;20044;-59
2023/11/19 04:07:39;;;;;;;13.05;3.90;;;14.00;89.10;;;;;;5049247;28;20399;-59
2023/11/19 04:10:05;;;;;;;11.98;3.40;;;14.00;89.10;;;;;;5052004;28;20562;-59
2023/11/19 04:12:31;;;;;;;15.65;3.65;;;14.00;89.30;;;;;;5048183;28;20037;-59
2023/11/19 04:14:57;;;;;;;9.30;3.25;;;13.90;89.20;;;;;;5059104;28;20048;-59
2023/11/19 04:17:25;;;;;;;5.97;1.83;;;13.90;89.20;;;;;;5050022;28;20075;-59
2023/11/19 04:19:51;;;;;;;16.80;2.88;;;13.90;89.20;;;;;;5049172;28;20098;-59
2023/11/19 04:22:17;;;;;;;11.05;3.15;;;13.90;89.10;;;;;;5052151;28;20021;-59
2023/11/19 04:24:45;;;;;;;13.30;2.58;;;13.90;89.20;;;;;;5044927;28;20068;-58
2023/11/19 04:27:11;;;;;;;15.77;2.60;;;13.90;89.20;;;;;;5056674;28;20106;-59
2023/11/19 04:29:36;;;;;;;12.63;3.28;;;13.80;88.90;;;;;;5057685;28;20048;-58
2023/11/19 04:32:02;;;;;;;12.45;3.78;;;13.80;88.90;;;;;;5060425;28;20031;-58
2023/11/19 04:34:28;;;;;;;24.23;4.88;;;13.70;88.80;;;;;;5054633;28;20483;-58
2023/11/19 04:36:54;;;;;;;9.73;2.80;;;13.70;88.60;;;;;;5057611;28;20037;-59
2023/11/19 04:39:19;;;;;;;6.15;3.65;;;13.70;88.50;;;;;;5053066;28;20028;-59
2023/11/19 04:41:49;;;;;;;10.43;2.10;;;13.70;88.40;;;;;;5049948;28;20108;-59
2023/11/19 04:44:15;;;;;;;8.75;2.75;;;13.70;88.50;;;;;;5053369;28;20032;-59
2023/11/19 04:46:45;;;;;;;10.25;1.98;;;13.60;88.40;;;;;;5048585;28;20045;-59
2023/11/19 04:49:11;;;;;;;9.43;2.92;;;13.60;88.40;;;;;;5053648;28;20020;-59
2023/11/19 04:51:41;;;;;;;14.90;2.63;;;13.60;87.90;;;;;;5052597;28;20490;-59
2023/11/19 04:54:08;;;;;;;11.20;4.22;;;13.60;87.70;;;;;;5057133;28;20437;-59
2023/11/19 04:56:36;;;;;;;14.82;2.95;;;13.60;87.80;;;;;;5049073;28;20078;-60
2023/11/19 04:59:02;;;;;;;5.57;3.05;;;13.50;87.50;;;;;;5050075;28;20478;-59
2023/11/19 05:01:28;;;;;;;8.82;3.13;;;13.50;87.70;;;;;;5052169;28;20025;-59
2023/11/19 05:03:53;;;;;;;9.52;3.45;;;13.50;87.60;;;;;;5054024;28;20036;-58
2023/11/19 05:06:19;;;;;;;17.90;2.60;;;13.50;87.50;;;;;;5054277;28;20028;-59
2023/11/19 05:08:45;;;;;;;10.45;3.40;;;13.50;87.40;;;;;;5057639;28;20048;-59
2023/11/19 05:11:17;;;;;;;10.02;3.20;;;13.50;87.50;;;;;;5050777;28;20082;-59
2023/11/19 05:13:44;;;;;;;9.82;3.50;;;13.50;87.50;;;;;;5045250;28;20468;-59
2023/11/19 05:16:10;;;;;;;9.70;2.78;;;13.50;87.40;;;;;;5045589;28;20029;-59
2023/11/19 05:18:36;;;;;;;15.85;2.90;;;13.50;87.40;;;;;;5061226;28;20036;-58
2023/11/19 05:21:02;;;;;;;10.63;2.30;;;13.40;87.20;;;;;;5056538;28;20040;-59
2023/11/19 05:23:27;;;;;;;14.70;2.55;;;13.50;87.30;;;;;;5048675;28;20059;-59
2023/11/19 05:25:53;;;;;;;14.38;3.45;;;13.50;87.20;;;;;;5049489;28;20040;-59
2023/11/19 05:28:19;;;;;;;14.32;2.80;;;13.50;87.20;;;;;;5050924;28;20499;-59
2023/11/19 05:30:45;;;;;;;10.75;3.05;;;13.50;87.20;;;;;;5045166;28;20358;-59
2023/11/19 05:33:11;;;;;;;15.88;3.22;;;13.50;87.10;;;;;;5059798;28;20374;-59
2023/11/19 05:35:37;;;;;;;16.65;4.80;;;13.50;87.00;;;;;;5046598;28;20147;-59
2023/11/19 05:38:03;;;;;;;8.52;2.72;;;13.50;87.00;;;;;;5043008;28;20388;-59
2023/11/19 05:40:29;;;;;;;8.35;2.70;;;13.50;87.00;;;;;;5041325;28;20183;-59
2023/11/19 05:42:54;;;;;;;13.45;4.75;;;13.50;87.00;;;;;;5037911;28;20036;-59
2023/11/19 05:45:20;;;;;;;12.23;2.83;;;13.60;86.80;;;;;;5054225;28;20031;-59
2023/11/19 05:47:46;;;;;;;15.20;5.38;;;13.60;86.80;;;;;;5048176;28;20100;-59
2023/11/19 05:50:11;;;;;;;6.72;2.67;;;13.60;86.70;;;;;;5054014;28;20122;-59
2023/11/19 05:52:37;;;;;;;6.95;3.50;;;13.60;86.50;;;;;;5050736;28;20028;-59
2023/11/19 05:55:09;;;;;;;12.77;3.47;;;13.50;86.60;;;;;;5047122;28;20044;-59
2023/11/19 05:57:36;;;;;;;;;;;13.50;86.50;;;;;;5036087;28;20025;-60
2023/11/19 06:00:03;;;;;;;11.07;2.72;;;13.50;86.50;;;;;;5052813;28;19920;-59
2023/11/19 06:02:28;;;;;;;7.07;2.90;;;13.50;86.50;;;;;;5046299;28;20396;-60
2023/11/19 06:04:54;;;;;;;10.98;2.83;;;13.50;86.40;;;;;;5039473;28;20025;-60
2023/11/19 06:07:20;;;;;;;15.23;3.95;;;13.50;86.40;;;;;;5049447;28;20029;-59
2023/11/19 06:09:45;;;;;;;15.82;3.13;;;13.60;86.30;;;;;;5048131;28;20079;-59
2023/11/19 06:12:12;;;;;;;15.98;4.18;;;13.60;86.30;;;;;;5045744;28;20025;-60
2023/11/19 06:14:37;;;;;;;14.15;2.60;;;13.60;86.00;;;;;;5052010;28;20541;-59
2023/11/19 06:17:04;;;;;;;9.52;2.83;;;13.60;86.00;;;;;;5053245;28;20054;-59
2023/11/19 06:19:30;;;;;;;12.20;2.83;;;13.60;85.90;;;;;;5058233;28;20068;-59
2023/11/19 06:21:56;;;;;;;9.93;4.07;;;13.60;85.90;;;;;;5045860;28;20464;-59
2023/11/19 06:24:22;;;;;;;16.42;3.25;;;13.60;85.70;;;;;;5053273;28;20040;-59
2023/11/19 06:26:47;;;;;;;8.23;3.15;;;13.50;85.60;;;;;;5053560;28;20025;-59
2023/11/19 06:29:18;;;;;;;10.90;3.88;;;13.50;85.80;;;;;;5062144;28;20071;-59
2023/11/19 06:31:44;;;;;;;14.82;3.67;;;13.50;85.80;;;;;;5057127;28;20044;-59
2023/11/19 06:34:10;;;;;;;13.02;3.20;;;13.50;85.90;;;;;;5054007;28;20028;-59
2023/11/19 06:36:36;;;;;;;13.85;4.45;;;13.50;85.90;;;;;;5059344;28;20033;-59
2023/11/19 06:39:01;;;;;;;15.65;2.85;;;13.50;85.90;;;;;;5056509;28;20039;-60
2023/11/19 06:41:28;;;;;;;12.95;3.90;;;13.50;85.90;;;;;;5058257;28;20115;-60
2023/11/19 06:43:54;;;;;;;12.25;3.88;;;13.50;85.90;;;;;;5054797;28;20032;-60
2023/11/19 06:46:20;;;;;;;18.20;3.78;;;13.50;86.00;;;;;;5057182;28;20503;-60
2023/11/19 06:48:46;;;;;;;21.65;3.30;;;13.50;85.90;;;;;;5061970;28;20047;-59
2023/11/19 06:51:12;;;;;;;11.93;2.78;;;13.50;86.00;;;;;;5054631;28;20040;-59
2023/11/19 06:53:39;;;;;;;20.23;4.10;;;13.50;85.90;;;;;;5052256;28;20025;-59
2023/11/19 06:56:16;;;;;;;10.52;2.60;;;13.50;86.00;;;;;;5054744;28;20025;-60
2023/11/19 06:58:42;;;;;;;14.07;2.80;;;13.50;86.00;;;;;;5054498;28;20164;-59
2023/11/19 07:01:08;;;;;;;15.00;3.50;;;13.50;86.00;;;;;;5051923;28;20120;-59
2023/11/19 07:03:35;;;;;;;14.82;4.30;;;13.40;85.90;;;;;;5056185;28;20452;-59
2023/11/19 07:06:00;;;;;;;10.45;3.50;;;13.50;85.90;;;;;;5061090;28;20048;-59
2023/11/19 07:08:26;;;;;;;10.27;2.28;;;13.50;86.00;;;;;;5056318;28;20399;-60
2023/11/19 07:10:53;;;;;;;6.43;2.88;;;13.50;85.80;;;;;;5061153;28;20125;-59
2023/11/19 07:13:19;;;;;;;16.25;3.13;;;13.40;85.60;;;;;;5051292;28;20036;-59
2023/11/19 07:15:44;;;;;;;9.98;2.90;;;13.40;85.70;;;;;;5052679;28;20025;-59
2023/11/19 07:18:11;;;;;;;22.10;4.32;;;13.40;85.70;;;;;;5056187;28;20147;-59
2023/11/19 07:20:37;;;;;;;11.50;3.75;;;13.40;85.80;;;;;;5055844;28;20920;-59
2023/11/19 07:23:03;;;;;;;17.52;3.85;;;13.40;85.70;;;;;;5047883;28;20036;-59
2023/11/19 07:25:29;;;;;;;9.02;2.67;;;13.40;85.70;;;;;;5049278;28;20017;-59
2023/11/19 07:27:56;;;;;;;11.77;3.38;;;13.50;85.90;;;;;;5052781;28;20059;-59
2023/11/19 07:30:22;;;;;;;14.02;3.45;;;13.50;85.80;;;;;;5050149;28;20098;-59
2023/11/19 07:32:48;;;;;;;13.27;3.10;;;13.50;85.80;;;;;;5055528;28;20132;-59
2023/11/19 07:35:15;;;;;;;11.07;2.90;;;13.50;85.70;;;;;;5059586;28;20024;-60
2023/11/19 07:37:42;;;;;;;16.13;5.20;;;13.50;85.70;;;;;;5051090;28;20032;-59
2023/11/19 07:40:08;;;;;;;18.20;3.63;;;13.50;85.60;;;;;;5061061;28;20032;-59
2023/11/19 07:42:33;;;;;;;7.68;3.05;;;13.50;85.50;;;;;;5054507;28;20039;-59
2023/11/19 07:44:59;;;;;;;11.25;2.95;;;13.40;85.60;;;;;;5051596;28;20029;-60
2023/11/19 07:47:25;;;;;;;12.57;3.80;;;13.50;85.70;;;;;;5049764;28;20029;-60
2023/11/19 07:49:51;;;;;;;17.45;4.63;;;13.40;85.20;;;;;;5045722;28;20045;-59
2023/11/19 07:52:17;;;;;;;9.50;3.72;;;13.50;85.30;;;;;;5050178;28;20040;-60
2023/11/19 07:54:42;;;;;;;11.10;2.22;;;13.50;85.40;;;;;;5052656;28;20029;-60
2023/11/19 07:57:08;;;;;;;6.72;2.92;;;13.50;85.30;;;;;;5046864;28;20025;-59
2023/11/19 07:59:33;;;;;;;13.02;2.38;;;13.50;85.20;;;;;;5048552;28;20072;-59
2023/11/19 08:01:59;;;;;;;12.02;3.42;;;13.60;85.70;;;;;;5047198;28;20080;-59
2023/11/19 08:04:25;;;;;;;7.25;3.35;;;13.60;84.90;;;;;;5049514;28;20033;-59
2023/11/19 08:06:51;;;;;;;3.78;2.33;;;13.60;84.90;;;;;;5053650;28;20057;-59
2023/11/19 08:09:17;;;;;;;9.88;3.15;;;13.60;84.90;;;;;;5047972;28;20413;-60
2023/11/19 08:11:43;;;;;;;11.80;2.70;;;13.70;84.90;;;;;;5054750;28;20032;-59
2023/11/19 08:14:09;;;;;;;13.82;3.35;;;13.70;84.80;;;;;;5050215;28;20025;-59
2023/11/19 08:16:36;;;;;;;11.35;3.28;;;13.80;84.80;;;;;;5056342;28;20047;-59
2023/11/19 08:19:03;;;;;;;12.65;3.13;;;13.90;84.50;;;;;;5049962;28;20033;-59
2023/11/19 08:21:29;;;;;;;8.45;3.50;;;14.00;84.30;;;;;;5053591;28;20047;-59
2023/11/19 08:23:54;;;;;;;18.33;2.78;;;13.90;84.00;;;;;;5047290;28;20028;-59
2023/11/19 08:26:20;;;;;;;13.63;4.10;;;14.00;84.00;;;;;;5042534;28;20033;-59
2023/11/19 08:28:46;;;;;;;5.13;1.65;;;13.90;83.70;;;;;;5046835;28;20021;-58
2023/11/19 08:31:11;;;;;;;14.45;2.72;;;13.90;83.90;;;;;;5043774;28;20037;-58
2023/11/19 08:33:37;;;;;;;9.85;2.40;;;14.00;83.80;;;;;;5051934;28;20025;-57
2023/11/19 08:36:04;;;;;;;16.75;3.67;;;13.90;83.70;;;;;;5050821;28;20078;-58
2023/11/19 08:38:29;;;;;;;16.67;4.20;;;13.90;83.70;;;;;;5055350;28;20055;-58
2023/11/19 08:40:59;;;;;;;8.23;2.47;;;13.90;83.60;;;;;;5051370;28;20499;-58
2023/11/19 08:43:26;;;;;;;10.25;2.30;;;13.90;83.70;;;;;;5051759;28;20021;-59
2023/11/19 08:45:52;;;;;;;8.98;1.92;;;13.90;84.30;;;;;;5049013;28;20047;-58
2023/11/19 08:48:17;;;;;;;12.57;2.95;;;13.90;83.70;;;;;;5054179;28;20032;-59
2023/11/19 08:50:43;;;;;;;9.45;3.35;;;13.90;83.50;;;;;;5054820;28;20020;-58
2023/11/19 08:53:09;;;;;;;11.73;2.60;;;14.00;83.20;;;;;;5055890;28;20040;-60
2023/11/19 08:55:37;;;;;;;7.53;2.85;;;13.90;83.20;;;;;;5039219;28;20036;-59
2023/11/19 08:58:03;;;;;;;7.78;2.65;;;13.90;83.00;;;;;;5053289;28;20066;-59
2023/11/19 09:00:29;;;;;;;15.88;3.55;;;14.00;82.90;;;;;;5049530;28;20044;-58
2023/11/19 09:02:55;;;;;;;13.38;3.47;;;14.00;82.90;;;;;;5055892;28;20030;-59
2023/11/19 09:05:20;;;;;;;8.10;2.45;;;14.00;82.80;;;;;;5052595;28;20041;-60
2023/11/19 09:07:46;;;;;;;13.07;3.33;;;14.00;82.50;;;;;;5053421;28;20378;-61
2023/11/19 09:10:12;;;;;;;8.50;3.13;;;14.10;82.20;;;;;;5056884;28;20053;-61
2023/11/19 09:12:38;;;;;;;9.05;3.05;;;14.00;82.20;;;;;;5046208;28;20068;-59
2023/11/19 09:15:03;;;;;;;16.38;2.58;;;14.00;82.20;;;;;;5038879;28;20021;-59
2023/11/19 09:17:29;;;;;;;8.43;3.40;;;14.00;82.30;;;;;;5050221;28;20021;-59
2023/11/19 09:19:55;;;;;;;8.85;3.30;;;14.10;82.90;;;;;;5049328;28;20033;-59
2023/11/19 09:22:21;;;;;;;8.98;2.78;;;14.20;82.30;;;;;;5049738;28;20499;-59
2023/11/19 09:24:48;;;;;;;12.43;3.13;;;14.20;81.70;;;;;;5046043;28;20029;-59
2023/11/19 09:27:13;;;;;;;16.33;4.72;;;14.20;81.70;;;;;;5050007;28;20032;-60
2023/11/19 09:29:39;;;;;;;10.45;3.05;;;14.20;81.70;;;;;;5027723;28;20376;-59
2023/11/19 09:32:05;;;;;;;11.43;3.08;;;14.20;81.80;;;;;;5058065;28;20033;-59
2023/11/19 09:34:31;;;;;;;18.63;3.58;;;14.20;81.70;;;;;;5054368;28;20466;-59
2023/11/19 09:36:57;;;;;;;10.32;2.42;;;14.30;81.60;;;;;;5050577;28;20024;-60
2023/11/19 09:39:25;;;;;;;9.52;3.08;;;14.30;81.50;;;;;;5046103;28;20472;-60
2023/11/19 09:41:51;;;;;;;11.73;2.83;;;14.30;81.50;;;;;;5058938;28;20036;-59
2023/11/19 09:44:19;;;;;;;11.32;3.47;;;14.30;81.40;;;;;;5049516;28;20159;-60
2023/11/19 09:46:45;;;;;;;12.27;3.90;;;14.40;81.30;;;;;;5045329;28;20039;-60
2023/11/19 09:49:11;;;;;;;6.25;2.63;;;14.40;80.90;;;;;;5045846;28;20021;-60
2023/11/19 09:51:37;;;;;;;11.80;3.75;;;14.50;80.90;;;;;;5045101;28;20098;-60
2023/11/19 09:54:03;;;;;;;9.95;2.58;;;14.50;80.90;;;;;;5047177;28;20029;-60
2023/11/19 09:56:32;;;;;;;12.20;4.30;;;14.40;81.10;;;;;;5051819;28;20467;-60
2023/11/19 09:58:59;;;;;;;15.85;3.47;;;14.50;80.80;;;;;;5049816;28;20596;-60
2023/11/19 10:01:25;;;;;;;14.32;2.47;;;14.40;80.70;;;;;;5053164;28;20026;-60
2023/11/19 10:03:54;;;;;;;16.63;4.35;;;14.50;81.10;;;;;;5044038;28;20030;-59
2023/11/19 10:06:20;;;;;;;11.95;2.90;;;14.50;80.30;;;;;;5047398;28;20067;-59
2023/11/19 10:08:46;;;;;;;6.65;3.28;;;14.60;80.40;;;;;;5053814;28;20076;-59
2023/11/19 10:11:12;;;;;;;12.68;3.72;;;14.70;80.20;;;;;;5055273;28;20033;-59
2023/11/19 10:13:38;;;;;;;13.85;3.75;;;14.70;79.70;;;;;;5055355;28;20029;-59
2023/11/19 10:16:08;;;;;;;15.77;3.30;;;14.70;79.70;;;;;;5052876;28;20453;-59
2023/11/19 10:18:37;;;;;;;10.82;4.15;;;14.70;79.50;;;;;;5055643;28;20119;-59
2023/11/19 10:21:05;;;;;;;10.15;2.28;;;14.70;79.90;;;;;;5046320;28;20032;-59
2023/11/19 10:23:31;;;;;;;15.05;3.22;;;14.70;79.70;;;;;;5048790;28;20100;-59
2023/11/19 10:26:05;;;;;;;7.75;2.40;;;14.60;79.70;;;;;;5054963;28;20112;-60
2023/11/19 10:28:42;;;;;;;9.45;2.58;;;14.60;80.10;;;;;;5049692;28;20328;-59
2023/11/19 10:31:08;;;;;;;4.78;2.67;;;14.60;80.10;;;;;;5039030;28;20021;-59
2023/11/19 10:33:33;;;;;;;7.30;3.10;;;14.50;79.80;;;;;;5041400;28;20099;-59
2023/11/19 10:36:02;;;;;;;9.80;2.38;;;14.60;80.10;;;;;;5043655;28;20474;-59
2023/11/19 10:38:28;;;;;;;14.02;3.20;;;14.60;80.00;;;;;;5050261;28;20108;-59
2023/11/19 10:40:54;;;;;;;11.02;2.65;;;14.60;80.10;;;;;;5051956;28;20053;-60
2023/11/19 10:43:25;;;;;;;5.97;2.53;;;14.60;79.90;;;;;;5052477;28;20036;-59
2023/11/19 10:45:52;;;;;;;13.77;2.90;;;14.60;79.80;;;;;;5055107;28;20032;-59
2023/11/19 10:48:17;;;;;;;8.18;2.80;;;14.70;80.00;;;;;;5047742;28;20481;-60
2023/11/19 10:50:45;;;;;;;6.10;2.10;;;14.80;79.70;;;;;;5044597;28;20029;-59
2023/11/19 10:53:18;;;;;;;18.67;3.58;;;14.80;79.30;;;;;;5055409;28;20032;-60
2023/11/19 10:55:47;;;;;;;8.52;3.65;;;14.90;79.10;;;;;;5049188;28;20415;-60
2023/11/19 10:58:18;;;;;;;6.72;2.88;;;15.10;78.60;;;;;;5046345;28;20029;-60
2023/11/19 11:00:54;;;;;;;17.58;2.60;;;15.50;77.90;;;;;;5045403;28;20120;-60
2023/11/19 11:03:20;;;;;;;17.83;3.15;;;15.80;76.70;;;;;;5048551;28;20033;-60
2023/11/19 11:05:50;;;;;;;13.23;2.88;;;16.10;74.80;;;;;;5053853;28;20036;-60
2023/11/19 11:08:17;;;;;;;7.10;2.40;;;16.20;74.50;;;;;;5053114;28;20624;-60
2023/11/19 11:10:52;;;;;;;6.78;2.70;;;16.00;74.60;;;;;;5050536;28;20029;-59
2023/11/19 11:13:18;;;;;;;6.95;2.28;;;16.20;74.70;;;;;;5051052;28;20069;-59
2023/11/19 11:15:46;;;;;;;7.35;3.22;;;16.60;73.40;;;;;;5056466;28;20103;-60
2023/11/19 11:18:13;;;;;;;8.27;2.20;;;17.00;72.60;;;;;;5051639;28;20029;-59
2023/11/19 11:20:39;;;;;;;10.13;2.42;;;17.10;71.60;;;;;;5049083;28;20480;-60
2023/11/19 11:23:42;;;;;;;9.55;2.38;;;17.50;71.40;;;;;;5055288;28;20028;-61
2023/11/19 11:26:45;;;;;;;13.70;2.17;;;17.40;69.70;;;;;;5048968;28;20110;-61
2023/11/19 11:29:21;;;;;;;5.63;2.33;;;16.80;70.30;;;;;;5038139;28;20033;-61
2023/11/19 11:32:13;;;;;;;8.25;3.35;;;16.70;71.40;;;;;;5044208;28;20080;-61
2023/11/19 11:34:57;;;;;;;;;;;16.50;71.00;;;;;;5057100;28;20032;-61
2023/11/19 11:37:36;;;;;;;6.57;1.75;;;16.20;71.90;;;;;;5050903;28;19909;-61
2023/11/19 11:40:10;;;;;;;12.23;2.75;;;15.90;72.80;;;;;;5044008;28;20013;-61
2023/11/19 11:42:36;;;;;;;12.43;2.67;;;15.90;73.40;;;;;;5050825;28;20040;-61
2023/11/19 11:45:09;;;;;;;9.30;1.95;;;15.70;73.90;;;;;;5048152;28;20046;-61
2023/11/19 11:47:44;;;;;;;;;;;15.70;74.50;;;;;;5050556;28;20028;-63
2023/11/19 11:50:18;;;;;;;7.03;1.92;;;15.60;74.30;;;;;;5051602;28;20333;-62
2023/11/19 11:52:58;;;;;;;4.75;2.40;;;15.60;74.90;;;;;;5050363;28;20440;-62
2023/11/19 11:55:28;;;;;;;14.05;2.85;;;15.70;74.70;;;;;;5053631;28;20008;-62
2023/11/19 11:57:57;;;;;;;11.40;3.25;;;15.80;74.50;;;;;;5053923;28;20044;-62
2023/11/19 12:00:29;;;;;;;11.00;2.65;;;15.80;74.60;;;;;;5058484;28;20404;-62
2023/11/19 12:02:57;;;;;;;13.57;2.33;;;15.80;74.30;;;;;;5051905;28;20060;-62
2023/11/19 12:05:23;;;;;;;10.43;3.50;;;15.70;73.90;;;;;;5047111;28;20025;-63
2023/11/19 12:07:57;;;;;;;6.65;2.15;;;15.60;74.00;;;;;;5050145;28;20065;-62
2023/11/19 12:10:24;;;;;;;11.93;3.70;;;15.60;74.30;;;;;;5044835;28;20124;-60
2023/11/19 12:12:59;;;;;;;6.07;2.72;;;15.50;74.70;;;;;;5042511;28;20033;-60
2023/11/19 12:15:31;;;;;;;9.93;2.15;;;16.10;75.00;;;;;;5061901;28;20027;-61
2023/11/19 12:17:57;;;;;;;12.20;2.53;;;17.90;71.90;;;;;;5040405;28;20044;-61
2023/11/19 12:20:25;;;;;;;4.70;2.10;;;19.00;65.80;;;;;;5054413;28;20526;-61
2023/11/19 12:22:52;;;;;;;7.75;2.17;;;19.00;65.00;;;;;;5049647;28;20024;-61
2023/11/19 12:25:20;;;;;;;7.03;2.47;;;18.40;65.80;;;;;;5062244;28;20031;-60
2023/11/19 12:27:47;;;;;;;6.20;2.42;;;17.70;66.50;;;;;;5056152;28;20087;-60
2023/11/19 12:30:26;;;;;;;5.82;2.58;;;17.10;68.50;;;;;;5050416;28;20029;-60
2023/11/19 12:32:53;;;;;;;9.00;1.58;;;16.90;69.50;;;;;;5054559;28;20025;-60
2023/11/19 12:35:19;;;;;;;9.68;2.05;;;16.80;70.00;;;;;;5056799;28;20025;-60
2023/11/19 12:37:52;;;;;;;7.85;1.88;;;16.70;70.40;;;;;;5052993;28;20027;-60
2023/11/19 12:40:19;;;;;;;9.50;2.50;;;17.10;70.20;;;;;;5056957;28;20128;-60
2023/11/19 12:42:46;;;;;;;10.10;1.63;;;17.30;68.80;;;;;;5055781;28;20036;-60